Safi — 5VBW7 — position and weather

sailwx.info

Track history (hours):
 
Tides and Currents Weather Stations Pressure Air Temp Water Temp Dewpoint Dewpoint Depression Visibility Wind Speed Wind Dir Waves Ship Positions

Safi

Last reported at 2018-May-23 01:03 UTC. Time now 2018-Jun-25 10:05 UTC.
Position N 33°14' E 033°37'.
Warning: this ship's position is 33 days out of date.

Length 93 m; draft 6.6 m.

MMSI: 671327000.

Date/timePositionNaut miles runAvg speedWind from/ knotsBaromVisibWave heightAir tempDewpointWater temp
2018-May-23 01:03N 33°14' E 033°37'0 8.3
2018-May-23 01:00N 33°14' E 033°36'4 8.5
2018-May-23 00:30N 33°11' E 033°33'5 8.4
2018-May-22 23:58N 33°08' E 033°29'4 8.4
2018-May-22 23:30N 33°05' E 033°26'4 8.4
2018-May-22 22:59N 33°02' E 033°22'4 8.5
2018-May-22 22:30N 32°59' E 033°19'4 8.6
2018-May-22 22:00N 32°55' E 033°15'  
2018-May-19 10:02N 31°35' E 031°45'0 0.3
2018-May-19 09:56N 31°35' E 031°46'0 0.0
2018-May-19 09:29N 31°35' E 031°46'0 0.0
2018-May-19 08:56N 31°35' E 031°46'0 0.0
2018-May-19 08:26N 31°35' E 031°46'0 0.0
2018-May-19 07:47N 31°35' E 031°46'0 0.0
2018-May-19 07:29N 31°35' E 031°46'0 0.0
2018-May-19 04:59N 31°35' E 031°46'0 0.0
2018-May-19 03:11N 31°35' E 031°46'0 0.0
2018-May-19 02:56N 31°35' E 031°45'0 0.0
2018-May-18 16:59N 31°35' E 031°45'32 1.4
2018-May-17 18:21N 31°57' E 032°11'3010.6
2018-May-17 15:33N 32°19' E 032°35'010.6
2018-May-17 15:30N 32°19' E 032°35'510.4
2018-May-17 15:00N 32°23' E 032°40'510.4
2018-May-17 14:29N 32°27' E 032°44'510.6
2018-May-17 13:58N 32°31' E 032°48'610.5
2018-May-17 13:26N 32°35' E 032°53'410.5
2018-May-17 13:00N 32°38' E 032°57'610.5
2018-May-17 12:25N 32°43' E 033°02'410.6
2018-May-17 12:00N 32°46' E 033°06'510.7
2018-May-17 11:30N 32°50' E 033°10'910.7
2018-May-17 10:41N 32°56' E 033°17'210.7
2018-May-17 10:30N 32°57' E 033°19'1710.7
2018-May-17 08:54N 33°10' E 033°33'610.9
2018-May-17 08:19N 33°15' E 033°38'5610.7
2018-May-17 03:05N 33°56' E 034°24'110.4
2018-May-17 02:59N 33°56' E 034°25'510.6
2018-May-17 02:29N 34°00' E 034°29'610.7
2018-May-17 01:58N 34°04' E 034°34'610.7
2018-May-17 01:24N 34°08' E 034°39'3210.7
2018-May-16 22:23N 34°32' E 035°06'1110.6
2018-May-16 21:23N 34°39' E 035°15'610.7
2018-May-16 20:50N 34°44' E 035°20'  
Track history (hours):
 
Tides and Currents Weather Stations Pressure Air Temp Water Temp Dewpoint Dewpoint Depression Visibility Wind Speed Wind Dir Waves Ship Positions

Safi

Last reported at 2018-May-23 01:03 UTC. Time now 2018-Jun-25 10:05 UTC.
Position N 33°14' E 033°37'.
Warning: this ship's position is 33 days out of date.

Length 93 m; draft 6.6 m.

MMSI: 671327000.

Date/timePositionNaut miles runAvg speedWind from/ knotsBaromVisibWave heightAir tempDewpointWater temp
2018-May-23 01:03N 33°14' E 033°37'0 8.3
2018-May-23 01:00N 33°14' E 033°36'4 8.5
2018-May-23 00:30N 33°11' E 033°33'5 8.4
2018-May-22 23:58N 33°08' E 033°29'4 8.4
2018-May-22 23:30N 33°05' E 033°26'4 8.4
2018-May-22 22:59N 33°02' E 033°22'4 8.5
2018-May-22 22:30N 32°59' E 033°19'4 8.6
2018-May-22 22:00N 32°55' E 033°15'  
2018-May-19 10:02N 31°35' E 031°45'0 0.3
2018-May-19 09:56N 31°35' E 031°46'0 0.0
2018-May-19 09:29N 31°35' E 031°46'0 0.0
2018-May-19 08:56N 31°35' E 031°46'0 0.0
2018-May-19 08:26N 31°35' E 031°46'0 0.0
2018-May-19 07:47N 31°35' E 031°46'0 0.0
2018-May-19 07:29N 31°35' E 031°46'0 0.0
2018-May-19 04:59N 31°35' E 031°46'0 0.0
2018-May-19 03:11N 31°35' E 031°46'0 0.0
2018-May-19 02:56N 31°35' E 031°45'0 0.0
2018-May-18 16:59N 31°35' E 031°45'32 1.4
2018-May-17 18:21N 31°57' E 032°11'3010.6
2018-May-17 15:33N 32°19' E 032°35'010.6
2018-May-17 15:30N 32°19' E 032°35'510.4
2018-May-17 15:00N 32°23' E 032°40'510.4
2018-May-17 14:29N 32°27' E 032°44'510.6
2018-May-17 13:58N 32°31' E 032°48'610.5
2018-May-17 13:26N 32°35' E 032°53'410.5
2018-May-17 13:00N 32°38' E 032°57'610.5
2018-May-17 12:25N 32°43' E 033°02'410.6
2018-May-17 12:00N 32°46' E 033°06'510.7
2018-May-17 11:30N 32°50' E 033°10'910.7
2018-May-17 10:41N 32°56' E 033°17'210.7
2018-May-17 10:30N 32°57' E 033°19'1710.7
2018-May-17 08:54N 33°10' E 033°33'610.9
2018-May-17 08:19N 33°15' E 033°38'5610.7
2018-May-17 03:05N 33°56' E 034°24'110.4
2018-May-17 02:59N 33°56' E 034°25'510.6
2018-May-17 02:29N 34°00' E 034°29'610.7
2018-May-17 01:58N 34°04' E 034°34'610.7
2018-May-17 01:24N 34°08' E 034°39'3210.7
2018-May-16 22:23N 34°32' E 035°06'1110.6
2018-May-16 21:23N 34°39' E 035°15'610.7
2018-May-16 20:50N 34°44' E 035°20'  

Dump ship's entire track history